Time;durP1;ratioP1;P1;durP2;ratioP2;P2;SDS_P1;SDS_P2;PMS_P1;PMS_P2;Temp;Humidity;BMP_temperature;BMP_pressure;BME280_temperature;BME280_humidity;BME280_pressure;Samples;Min_cycle;Max_cycle;Signal;HPM_P1;HPM_P2
2022/04/18 00:00:50;;;;;;;;;;;;;;;22.29;65.50;96790.97;619718;229;65010;-67
2022/04/18 00:03:17;;;;;;;;;;;;;;;22.29;64.91;96791.78;619708;229;66859;-67
2022/04/18 00:05:44;;;;;;;;;;;;;;;22.29;65.09;96791.78;619773;229;65742;-67
2022/04/18 00:08:12;;;;;;;;;;;;;;;22.29;65.27;96801.67;619692;229;67197;-67
2022/04/18 00:10:39;;;;;;;;;;;;;;;22.28;65.42;96797.41;619730;229;66886;-67
2022/04/18 00:13:07;;;;;;;;;;;;;;;22.27;64.45;96791.27;619731;229;65261;-67
2022/04/18 00:15:35;;;;;;;;;;;;;;;22.27;65.50;96801.97;619707;229;67279;-67
2022/04/18 00:18:02;;;;;;;;;;;;;;;22.27;65.19;96795.83;619742;229;67408;-67
2022/04/18 00:20:30;;;;;;;;;;;;;;;22.25;65.00;96788.07;619691;229;65401;-67
2022/04/18 00:22:57;;;;;;;;;;;;;;;22.26;65.38;96784.33;619732;229;67210;-67
2022/04/18 00:25:25;;;;;;;;;;;;;;;22.24;66.01;96783.81;619704;229;67068;-67
2022/04/18 00:27:52;;;;;;;;;;;;;;;22.25;65.31;96781.92;619735;229;65295;-67
2022/04/18 00:30:19;;;;;;;;;;;;;;;22.24;65.09;96783.81;619789;229;67205;-67
2022/04/18 00:32:47;;;;;;;;;;;;;;;22.25;65.74;96789.95;619724;229;67059;-67
2022/04/18 00:35:14;;;;;;;;;;;;;;;22.24;65.99;96791.05;619724;229;65657;-67
2022/04/18 00:37:42;;;;;;;;;;;;;;;22.23;65.50;96784.08;619720;229;66863;-67
2022/04/18 00:40:11;;;;;;;;;;;;;;;22.23;65.31;96784.08;619708;229;64918;-67
2022/04/18 00:42:40;;;;;;;;;;;;;;;22.23;65.72;96779.52;619674;229;64078;-68
2022/04/18 00:45:08;;;;;;;;;;;;;;;22.22;65.59;96777.14;619767;229;65141;-68
2022/04/18 00:47:36;;;;;;;;;;;;;;;22.22;65.57;96771.79;619682;229;66951;-68
2022/04/18 00:50:03;;;;;;;;;;;;;;;22.21;65.72;96776.34;619743;229;65083;-68
2022/04/18 00:52:31;;;;;;;;;;;;;;;22.21;64.70;96767.50;619712;229;67225;-68
2022/04/18 00:55:02;;;;;;;;;;;;;;;22.20;64.82;96772.06;619735;229;64600;-67
2022/04/18 00:57:31;;;;;;;;;;;;;;;22.19;65.31;96767.80;619783;229;63983;-65
2022/04/18 00:59:58;;;;;;;;;;;;;;;22.20;65.60;96772.06;619709;229;66892;-65
2022/04/18 01:02:26;;;;;;;;;;;;;;;22.20;65.94;96768.59;619762;229;66746;-64
2022/04/18 01:04:53;;;;;;;;;;;;;;;22.19;65.12;96765.12;619730;229;66311;-65
2022/04/18 01:07:21;;;;;;;;;;;;;;;22.19;66.04;96762.45;619735;229;64437;-64
2022/04/18 01:09:49;;;;;;;;;;;;;;;22.19;65.31;96756.30;615815;229;68009;-64
2022/04/18 01:12:17;;;;;;;;;;;;;;;22.17;64.95;96765.36;619727;229;65276;-64
2022/04/18 01:15:01;;;;;;;;;;;;;;;22.17;65.79;96762.69;619598;228;44118;-65
2022/04/18 01:17:46;;;;;;;;;;;;;;;22.17;65.50;96759.22;612423;231;46590;-68
2022/04/18 01:20:25;;;;;;;;;;;;;;;22.17;65.08;96776.07;617469;229;42736;-69
2022/04/18 01:22:55;;;;;;;;;;;;;;;22.15;64.99;96761.37;618777;229;47954;-69
2022/04/18 01:31:04;;;;;;;;;;;;;;;22.15;65.90;96756.02;619817;229;65030;-68
2022/04/18 01:33:31;;;;;;;;;;;;;;;22.14;65.87;96754.44;619674;229;67757;-68
2022/04/18 01:35:59;;;;;;;;;;;;;;;22.13;65.52;96752.86;619747;229;66251;-68
2022/04/18 01:38:27;;;;;;;;;;;;;;;22.13;65.03;96750.97;619678;229;65028;-68
2022/04/18 01:40:54;;;;;;;;;;;;;;;22.12;65.35;96743.21;619758;229;67392;-68
2022/04/18 01:43:22;;;;;;;;;;;;;;;22.12;65.86;96748.56;619787;229;65273;-68
2022/04/18 01:45:50;;;;;;;;;;;;;;;22.12;65.58;96751.23;619716;229;68014;-68
2022/04/18 01:48:22;;;;;;;;;;;;;;;22.11;65.49;96741.63;619612;228;48037;-68
2022/04/18 01:50:50;;;;;;;;;;;;;;;22.10;65.90;96726.67;619765;229;65872;-68
2022/04/18 01:53:18;;;;;;;;;;;;;;;22.11;66.20;96725.58;619738;229;66946;-67
2022/04/18 01:55:46;;;;;;;;;;;;;;;22.10;66.08;96721.31;619760;229;66944;-67
2022/04/18 01:58:14;;;;;;;;;;;;;;;22.10;66.03;96719.43;619774;229;64097;-68
2022/04/18 02:00:41;;;;;;;;;;;;;;;22.09;66.59;96715.14;619745;229;67423;-67
2022/04/18 02:03:09;;;;;;;;;;;;;;;22.09;66.09;96709.00;619759;229;64538;-68
2022/04/18 02:05:37;;;;;;;;;;;;;;;22.09;66.15;96717.81;619741;229;65519;-68
2022/04/18 02:08:04;;;;;;;;;;;;;;;22.09;66.04;96711.67;619735;229;65854;-67
2022/04/18 02:10:32;;;;;;;;;;;;;;;22.09;65.83;96709.00;619822;229;67448;-67
2022/04/18 02:13:00;;;;;;;;;;;;;;;22.08;65.94;96704.73;619727;229;65286;-68
2022/04/18 02:15:28;;;;;;;;;;;;;;;22.07;65.65;96703.13;619767;229;67839;-68
2022/04/18 02:18:00;;;;;;;;;;;;;;;22.08;66.25;96696.70;619784;228;44182;-68
2022/04/18 02:20:28;;;;;;;;;;;;;;;22.06;65.67;96704.22;619748;229;65152;-68
2022/04/18 02:22:56;;;;;;;;;;;;;;;22.06;66.99;96699.66;619755;229;64687;-68
2022/04/18 02:25:24;;;;;;;;;;;;;;;22.07;66.63;96689.75;619740;229;67029;-68
2022/04/18 02:27:53;;;;;;;;;;;;;;;22.06;65.81;96696.19;619756;229;65278;-68
2022/04/18 02:30:20;;;;;;;;;;;;;;;22.05;66.22;96692.72;619734;229;67206;-68
2022/04/18 02:32:49;;;;;;;;;;;;;;;22.05;65.86;96691.93;619753;229;67030;-68
2022/04/18 02:35:20;;;;;;;;;;;;;;;22.04;65.97;96685.76;619755;229;66082;-68
2022/04/18 02:37:48;;;;;;;;;;;;;;;22.03;66.64;96689.53;619751;229;67084;-68
2022/04/18 02:40:18;;;;;;;;;;;;;;;22.04;65.69;96684.97;619770;228;46715;-68
2022/04/18 02:42:46;;;;;;;;;;;;;;;22.04;66.91;96684.97;619697;229;62773;-68
2022/04/18 02:45:19;;;;;;;;;;;;;;;22.04;67.15;96685.76;619747;229;67294;-68
2022/04/18 02:47:48;;;;;;;;;;;;;;;22.03;66.62;96684.17;618531;229;48482;-68
2022/04/18 02:50:15;;;;;;;;;;;;;;;22.02;65.83;96685.27;619809;229;65263;-65
2022/04/18 02:52:43;;;;;;;;;;;;;;;22.02;66.63;96679.13;619719;229;64631;-65
2022/04/18 02:55:11;;;;;;;;;;;;;;;22.02;65.84;96679.13;619751;229;67436;-65
2022/04/18 02:57:40;;;;;;;;;;;;;;;22.01;66.16;96677.52;619734;229;63202;-65
2022/04/18 03:00:09;;;;;;;;;;;;;;;22.00;66.19;96670.58;619714;229;68048;-65
2022/04/18 03:02:38;;;;;;;;;;;;;;;22.01;65.89;96680.19;619751;229;64992;-65
2022/04/18 03:05:07;;;;;;;;;;;;;;;22.00;66.16;96683.95;619762;229;66042;-65
2022/04/18 03:07:34;;;;;;;;;;;;;;;21.99;65.72;96671.64;619751;229;66931;-68
2022/04/18 03:10:03;;;;;;;;;;;;;;;22.00;66.63;96673.25;619756;229;67000;-68
2022/04/18 03:12:31;;;;;;;;;;;;;;;22.00;66.31;96678.61;619703;229;65562;-68
2022/04/18 03:14:59;;;;;;;;;;;;;;;21.99;66.90;96682.34;619736;229;65177;-68
2022/04/18 03:17:27;;;;;;;;;;;;;;;21.98;67.15;96681.55;615786;229;68105;-68
2022/04/18 03:19:54;;;;;;;;;;;;;;;21.97;67.55;96666.59;619744;229;65102;-68
2022/04/18 03:22:24;;;;;;;;;;;;;;;21.98;67.09;96670.85;619741;229;65676;-68
2022/04/18 03:24:53;;;;;;;;;;;;;;;21.97;66.84;96669.27;619739;229;66998;-68
2022/04/18 03:27:22;;;;;;;;;;;;;;;21.97;66.40;96669.27;619737;229;65341;-69
2022/04/18 03:29:50;;;;;;;;;;;;;;;21.95;66.50;96672.22;619802;229;65046;-68
2022/04/18 03:32:22;;;;;;;;;;;;;;;21.97;67.58;96665.80;619723;228;44257;-68
2022/04/18 03:34:49;;;;;;;;;;;;;;;21.95;67.28;96668.75;619749;229;65315;-65
2022/04/18 03:40:03;;;;;;;;;;;;;;;21.94;67.80;96664.49;619739;229;64932;-65
2022/04/18 03:42:31;;;;;;;;;;;;;;;21.93;67.46;96661.03;619665;229;65277;-65
2022/04/18 03:45:06;;;;;;;;;;;;;;;21.93;66.42;96663.70;619759;227;44382;-65
2022/04/18 03:47:34;;;;;;;;;;;;;;;21.93;67.46;96669.05;619803;229;66899;-65
2022/04/18 03:50:02;;;;;;;;;;;;;;;21.92;66.21;96664.77;619730;229;62804;-65
2022/04/18 03:52:31;;;;;;;;;;;;;;;21.93;67.03;96662.87;619727;229;67849;-65
2022/04/18 03:55:00;;;;;;;;;;;;;;;21.91;66.65;96665.86;619717;229;67599;-65
2022/04/18 03:57:30;;;;;;;;;;;;;;;21.91;67.12;96662.39;619585;228;46528;-65
2022/04/18 03:59:59;;;;;;;;;;;;;;;21.93;67.18;96662.87;619715;228;45776;-65
2022/04/18 04:02:27;;;;;;;;;;;;;;;21.91;67.26;96665.86;619712;229;67816;-65
2022/04/18 04:04:55;;;;;;;;;;;;;;;21.91;66.57;96670.42;619729;229;65977;-65
2022/04/18 04:07:24;;;;;;;;;;;;;;;21.90;67.53;96666.12;619729;229;67224;-64
2022/04/18 04:09:53;;;;;;;;;;;;;;;21.90;67.11;96663.45;619510;228;46923;-65
2022/04/18 04:12:25;;;;;;;;;;;;;;;21.89;67.12;96668.02;619721;229;65249;-65
2022/04/18 04:14:58;;;;;;;;;;;;;;;21.89;67.53;96659.20;615341;229;47164;-66
2022/04/18 04:17:26;;;;;;;;;;;;;;;21.88;68.08;96657.58;619717;229;67449;-66
2022/04/18 04:19:57;;;;;;;;;;;;;;;21.86;67.31;96660.56;619746;229;62998;-66
2022/04/18 04:22:25;;;;;;;;;;;;;;;21.89;67.46;96661.88;619658;228;48765;-66
2022/04/18 04:24:54;;;;;;;;;;;;;;;21.88;66.68;96655.73;615731;229;66468;-66
2022/04/18 04:27:22;;;;;;;;;;;;;;;21.87;68.29;96656.80;619692;229;62854;-66
2022/04/18 04:29:49;;;;;;;;;;;;;;;21.87;67.42;96651.44;619715;229;67928;-66
2022/04/18 04:32:19;;;;;;;;;;;;;;;21.86;67.37;96651.74;619586;228;45089;-66
2022/04/18 04:34:47;;;;;;;;;;;;;;;21.86;66.52;96657.89;619673;229;65242;-66
2022/04/18 04:37:22;;;;;;;;;;;;;;;21.86;66.82;96652.53;619750;227;45843;-66
2022/04/18 04:39:51;;;;;;;;;;;;;;;21.86;68.10;96652.53;619727;228;43391;-66
2022/04/18 04:42:19;;;;;;;;;;;;;;;21.86;67.41;96651.74;618924;229;63959;-66
2022/04/18 04:44:47;;;;;;;;;;;;;;;21.85;67.53;96652.80;617533;230;67167;-66
2022/04/18 04:47:19;;;;;;;;;;;;;;;21.85;68.17;96650.95;617460;228;48298;-66
2022/04/18 04:49:48;;;;;;;;;;;;;;;21.85;66.93;96648.28;617557;230;65156;-66
2022/04/18 04:52:18;;;;;;;;;;;;;;;21.85;67.37;96656.30;617331;228;49528;-66
2022/04/18 04:54:45;;;;;;;;;;;;;;;21.85;68.01;96656.30;617521;230;65637;-66
2022/04/18 04:57:15;;;;;;;;;;;;;;;21.83;67.18;96658.45;617462;228;43575;-66
2022/04/18 05:00:00;;;;;;;;;;;;;;;21.83;67.39;96658.45;617604;230;40693;-66
2022/04/18 05:02:29;;;;;;;;;;;;;;;21.84;66.79;96654.69;617566;228;44311;-66
2022/04/18 05:04:57;;;;;;;;;;;;;;;21.84;67.30;96654.69;617538;230;63052;-66
2022/04/18 05:07:25;;;;;;;;;;;;;;;21.83;67.12;96650.43;617531;230;64819;-66
2022/04/18 05:09:57;;;;;;;;;;;;;;;21.83;67.29;96645.08;617439;228;43890;-66
2022/04/18 05:12:28;;;;;;;;;;;;;;;21.83;67.94;96647.76;617504;230;62658;-66
2022/04/18 05:14:54;;;;;;;;;;;;;;;21.83;67.65;96647.76;617468;228;64525;-66
2022/04/18 05:17:23;;;;;;;;;;;;;;;21.83;66.98;96646.97;617391;228;45806;-66
2022/04/18 05:19:58;;;;;;;;;;;;;;;21.83;67.90;96647.76;617548;228;43715;-66
2022/04/18 05:22:27;;;;;;;;;;;;;;;21.83;67.66;96649.64;617494;230;64249;-66
2022/04/18 05:24:59;;;;;;;;;;;;;;;21.82;67.37;96656.05;617513;230;66787;-66
2022/04/18 05:27:28;;;;;;;;;;;;;;;21.83;68.14;96657.67;617007;230;48147;-65
2022/04/18 05:29:55;;;;;;;;;;;;;;;21.82;67.69;96662.20;617534;230;66878;-65
2022/04/18 05:32:23;;;;;;;;;;;;;;;21.83;67.50;96660.34;617524;230;64523;-65
2022/04/18 05:34:52;;;;;;;;;;;;;;;21.82;68.28;96664.08;617443;228;42602;-65
2022/04/18 05:37:24;;;;;;;;;;;;;;;21.81;67.42;96659.82;617509;228;45492;-65
2022/04/18 05:39:54;;;;;;;;;;;;;;;21.82;66.91;96662.20;616567;230;48037;-65
2022/04/18 05:42:23;;;;;;;;;;;;;;;21.83;67.39;96668.37;617370;229;65056;-65
2022/04/18 05:44:51;;;;;;;;;;;;;;;21.82;67.42;96667.55;617463;230;67381;-65
2022/04/18 05:47:19;;;;;;;;;;;;;;;21.82;67.66;96667.55;617409;230;64540;-66
2022/04/18 05:49:47;;;;;;;;;;;;;;;21.83;67.88;96671.05;616487;230;65874;-65
2022/04/18 05:52:15;;;;;;;;;;;;;;;21.81;67.97;96676.66;617468;230;68013;-65
2022/04/18 05:54:43;;;;;;;;;;;;;;;21.81;67.43;96673.20;614992;230;68219;-65
2022/04/18 05:57:11;;;;;;;;;;;;;;;21.80;67.94;96675.08;617325;230;65500;-65
2022/04/18 05:59:43;;;;;;;;;;;;;;;21.82;67.46;96667.55;617439;228;48224;-65
2022/04/18 06:02:16;;;;;;;;;;;;;;;21.81;67.10;96663.29;616986;228;46846;-67
2022/04/18 06:05:03;;;;;;;;;;;;;;;21.80;66.53;96664.38;624644;226;42624;-65
2022/04/18 06:07:50;;;;;;;;;;;;;;;21.81;67.20;96671.31;624098;227;43027;-65
2022/04/18 06:10:40;;;;;;;;;;;;;;;21.79;66.25;96668.12;624049;227;49151;-66
2022/04/18 06:13:14;;;;;;;;;;;;;;;21.79;66.04;96668.12;610642;232;47513;-66
2022/04/18 06:15:42;;;;;;;;;;;;;;;21.80;65.95;96664.38;624071;227;67132;-64
2022/04/18 06:18:10;;;;;;;;;;;;;;;21.80;67.37;96672.41;619030;227;65984;-64
2022/04/18 06:20:38;;;;;;;;;;;;;;;21.81;66.87;96667.84;624328;227;66215;-68
2022/04/18 06:23:06;;;;;;;;;;;;;;;21.79;65.71;96665.44;624145;227;65713;-68
2022/04/18 06:25:34;;;;;;;;;;;;;;;21.80;65.58;96666.23;624108;227;64609;-65
2022/04/18 06:28:01;;;;;;;;;;;;;;;21.79;63.40;96665.44;624172;227;65921;-65
2022/04/18 06:30:30;;;;;;;;;;;;;;;21.81;65.29;96668.64;623978;227;45200;-65
2022/04/18 06:33:15;;;;;;;;;;;;;;;21.82;65.53;96659.52;623638;227;45481;-65
2022/04/18 06:35:46;;;;;;;;;;;;;;;21.84;66.72;96660.04;624200;227;64021;-64
2022/04/18 06:38:14;;;;;;;;;;;;;;;21.84;66.36;96669.95;624153;227;67695;-65
2022/04/18 06:40:58;;;;;;;;;;;;;;;21.83;66.40;96666.48;624021;227;45685;-66
2022/04/18 06:43:26;;;;;;;;;;;;;;;21.84;64.88;96667.27;624127;227;66040;-67
2022/04/18 06:45:55;;;;;;;;;;;;;;;21.85;65.46;96668.86;624104;227;48649;-67
2022/04/18 06:48:23;;;;;;;;;;;;;;;21.85;62.96;96666.18;624225;227;67796;-67
2022/04/18 06:51:09;;;;;;;;;;;;;;;21.88;63.43;96665.61;624369;227;39091;-70
2022/04/18 06:53:54;;;;;;;;;;;;;;;21.89;64.30;96665.34;624228;227;38399;-68
2022/04/18 06:59:23;;;;;;;;;;;;;;;21.93;63.65;96673.58;624074;227;43463;-67
2022/04/18 07:01:50;;;;;;;;;;;;;;;21.94;64.99;96673.31;624130;227;65280;-66
2022/04/18 07:04:18;;;;;;;;;;;;;;;21.92;63.90;96675.47;624063;227;67417;-66
2022/04/18 07:06:46;;;;;;;;;;;;;;;21.93;64.53;96685.11;624144;227;65321;-66
2022/04/18 07:09:14;;;;;;;;;;;;;;;21.96;65.60;96678.36;624208;227;64943;-65
2022/04/18 07:11:46;;;;;;;;;;;;;;;21.97;65.53;96679.97;624111;227;45516;-67
2022/04/18 07:14:15;;;;;;;;;;;;;;;21.98;65.07;96686.11;624121;227;65460;-66
2022/04/18 07:16:45;;;;;;;;;;;;;;;22.01;64.94;96680.19;624224;227;67138;-67
2022/04/18 07:19:14;;;;;;;;;;;;;;;22.02;64.80;96695.97;623798;227;44032;-67
2022/04/18 07:21:41;;;;;;;;;;;;;;;22.04;64.44;96687.64;623692;227;65246;-66
2022/04/18 07:24:10;;;;;;;;;;;;;;;22.06;64.16;96698.86;624151;227;64991;-65
2022/04/18 07:26:38;;;;;;;;;;;;;;;22.07;64.53;96695.09;624119;227;66845;-66
2022/04/18 07:29:06;;;;;;;;;;;;;;;22.07;64.56;96698.59;624096;227;63764;-66
2022/04/18 07:31:34;;;;;;;;;;;;;;;22.08;64.20;96700.17;624131;227;67816;-65
2022/04/18 07:34:01;;;;;;;;;;;;;;;22.09;64.28;96706.32;624182;227;67034;-67
2022/04/18 07:36:29;;;;;;;;;;;;;;;22.09;64.11;96706.32;624128;227;65275;-65
2022/04/18 07:38:57;;;;;;;;;;;;;;;22.09;64.55;96703.64;624098;227;65789;-66
2022/04/18 07:41:33;;;;;;;;;;;;;;;22.12;64.59;96711.09;621731;227;47869;-66
2022/04/18 07:44:01;;;;;;;;;;;;;;;22.10;63.65;96703.38;618894;228;62789;-66
2022/04/18 07:46:30;;;;;;;;;;;;;;;22.13;63.52;96704.68;618220;228;67776;-66
2022/04/18 07:48:59;;;;;;;;;;;;;;;22.15;63.55;96707.84;618241;228;67760;-66
2022/04/18 07:51:42;;;;;;;;;;;;;;;22.16;64.47;96710.25;621049;228;63816;-67
2022/04/18 07:54:17;;;;;;;;;;;;;;;22.16;63.69;96712.92;621102;228;48272;-65
2022/04/18 07:56:44;;;;;;;;;;;;;;;22.18;63.40;96710.01;622048;228;67102;-65
2022/04/18 07:59:12;;;;;;;;;;;;;;;22.20;63.33;96709.70;622141;228;65389;-66
2022/04/18 08:01:40;;;;;;;;;;;;;;;22.21;63.85;96705.94;622084;228;68154;-66
2022/04/18 08:04:09;;;;;;;;;;;;;;;22.22;63.37;96705.66;622109;228;44334;-65
2022/04/18 08:06:37;;;;;;;;;;;;;;;22.24;62.62;96708.06;622121;228;65941;-65
2022/04/18 08:09:10;;;;;;;;;;;;;;;22.25;63.09;96707.77;620686;228;46606;-65
2022/04/18 08:11:37;;;;;;;;;;;;;;;22.28;62.12;96709.08;622055;228;67024;-66
2022/04/18 08:14:05;;;;;;;;;;;;;;;22.29;62.55;96710.66;622068;228;66127;-66
2022/04/18 08:16:43;;;;;;;;;;;;;;;22.31;62.11;96711.97;622257;228;49533;-66
2022/04/18 08:19:13;;;;;;;;;;;;;;;22.32;61.75;96705.55;621809;228;44064;-66
2022/04/18 08:21:40;;;;;;;;;;;;;;;22.34;61.21;96706.06;622080;226;63110;-66
2022/04/18 08:24:11;;;;;;;;;;;;;;;22.35;61.37;96712.21;622194;228;47153;-70
2022/04/18 08:26:56;;;;;;;;;;;;;;;22.37;60.63;96710.84;622178;228;41791;-69
2022/04/18 08:29:28;;;;;;;;;;;;;;;22.41;60.42;96702.23;622102;228;42353;-69
2022/04/18 08:32:04;;;;;;;;;;;;;;;22.41;60.68;96710.27;621592;228;45897;-71
2022/04/18 08:34:33;;;;;;;;;;;;;;;22.41;60.97;96705.70;622118;228;66992;-70
2022/04/18 08:37:01;;;;;;;;;;;;;;;22.43;60.81;96706.22;622124;228;65436;-71
2022/04/18 08:39:31;;;;;;;;;;;;;;;22.44;60.97;96712.37;621577;228;43835;-71
2022/04/18 08:42:04;;;;;;;;;;;;;;;22.45;61.07;96711.27;622030;228;45641;-70
2022/04/18 08:44:34;;;;;;;;;;;;;;;22.47;60.60;96717.14;621980;228;43679;-71
2022/04/18 08:47:02;;;;;;;;;;;;;;;22.48;60.57;96710.69;622105;228;64897;-72
2022/04/18 08:55:04;;;;;;;;;;;;;;;22.54;58.25;96704.20;617421;228;49228;-67
2022/04/18 08:57:32;;;;;;;;;;;;;;;22.56;59.64;96710.88;622105;228;66913;-71
2022/04/18 09:00:00;;;;;;;;;;;;;;;22.57;59.74;96703.63;622100;226;62555;-65
2022/04/18 09:02:28;;;;;;;;;;;;;;;22.59;59.66;96712.17;622057;228;64915;-67
2022/04/18 09:05:15;;;;;;;;;;;;;;;22.59;60.31;96717.53;621957;228;45514;-69
2022/04/18 09:07:44;;;;;;;;;;;;;;;22.59;59.75;96717.53;622049;228;66545;-66
2022/04/18 09:10:14;;;;;;;;;;;;;;;22.56;59.97;96716.23;615375;228;68367;-70
2022/04/18 09:12:42;;;;;;;;;;;;;;;22.57;58.81;96715.13;621760;228;67431;-74
2022/04/18 09:15:37;;;;;;;;;;;;;;;22.58;59.44;96711.36;621933;228;42726;-68
2022/04/18 09:18:12;;;;;;;;;;;;;;;22.57;59.64;96706.30;622115;228;67152;-66
2022/04/18 09:20:52;;;;;;;;;;;;;;;22.56;58.83;96712.73;616925;228;47625;-74
2022/04/18 09:23:26;;;;;;;;;;;;;;;22.56;59.01;96707.38;622131;228;65602;-76
2022/04/18 09:25:56;;;;;;;;;;;;;;;22.57;58.25;96704.42;622088;228;66864;-69
2022/04/18 09:28:29;;;;;;;;;;;;;;;22.56;59.49;96704.70;621412;228;67806;-60
2022/04/18 09:31:01;;;;;;;;;;;;;;;22.57;58.02;96703.63;621178;228;63185;-61
2022/04/18 09:33:31;;;;;;;;;;;;;;;22.61;56.59;96709.98;622127;228;67689;-61
2022/04/18 09:36:09;;;;;;;;;;;;;;;22.63;56.34;96702.47;622098;228;68382;-61
2022/04/18 09:38:38;;;;;;;;;;;;;;;22.65;56.77;96704.87;622193;228;65366;-61
2022/04/18 09:41:18;;;;;;;;;;;;;;;22.68;57.27;96707.76;622274;228;49328;-71
2022/04/18 09:43:48;;;;;;;;;;;;;;;22.69;57.11;96703.19;620650;228;65358;-69
2022/04/18 09:46:17;;;;;;;;;;;;;;;22.68;57.52;96705.08;620670;228;43202;-73
2022/04/18 09:48:48;;;;;;;;;;;;;;;22.69;58.32;96700.52;620694;228;44187;-69
2022/04/18 09:51:18;;;;;;;;;;;;;;;22.68;57.82;96699.72;620628;228;67501;-70
2022/04/18 09:53:47;;;;;;;;;;;;;;;22.69;57.58;96703.98;620074;228;42394;-70
2022/04/18 09:56:16;;;;;;;;;;;;;;;22.69;57.38;96700.52;620650;228;67217;-69
2022/04/18 09:58:44;;;;;;;;;;;;;;;22.69;55.31;96700.52;620720;228;65487;-72
2022/04/18 10:01:12;;;;;;;;;;;;;;;22.72;54.43;96700.72;620737;228;63099;-73
2022/04/18 10:03:40;;;;;;;;;;;;;;;22.76;56.45;96700.95;620584;228;67265;-72
2022/04/18 10:06:08;;;;;;;;;;;;;;;22.76;56.57;96696.39;620642;228;66836;-69
2022/04/18 10:08:36;;;;;;;;;;;;;;;22.77;57.00;96699.86;620763;228;65086;-70
2022/04/18 10:11:05;;;;;;;;;;;;;;;22.79;56.82;96700.37;620725;228;64818;-70
2022/04/18 10:13:34;;;;;;;;;;;;;;;22.80;56.89;96700.07;620665;228;64430;-71
2022/04/18 10:16:03;;;;;;;;;;;;;;;22.81;56.88;96700.89;620618;228;63903;-71
2022/04/18 10:18:32;;;;;;;;;;;;;;;22.81;57.46;96700.89;619982;228;67182;-71
2022/04/18 10:21:01;;;;;;;;;;;;;;;22.82;57.21;96702.47;620693;228;65377;-72
2022/04/18 10:23:42;;;;;;;;;;;;;;;22.82;57.93;96700.58;620469;228;63141;-71
2022/04/18 10:26:23;;;;;;;;;;;;;;;22.82;57.62;96697.91;620730;228;67190;-72
2022/04/18 10:28:53;;;;;;;;;;;;;;;22.84;57.80;96694.95;609267;227;67059;-72
2022/04/18 10:31:37;;;;;;;;;;;;;;;22.83;58.77;96696.84;617417;227;65309;-72
2022/04/18 10:34:05;;;;;;;;;;;;;;;22.85;58.36;96703.77;617413;230;65742;-71
2022/04/18 10:36:34;;;;;;;;;;;;;;;22.85;58.09;96703.77;617371;230;65016;-72
2022/04/18 10:39:03;;;;;;;;;;;;;;;22.86;58.38;96697.32;617429;230;63010;-72
2022/04/18 10:41:38;;;;;;;;;;;;;;;22.86;58.75;96700.79;616682;228;64612;-71
2022/04/18 10:44:08;;;;;;;;;;;;;;;22.86;58.83;96697.32;619684;229;67134;-74
2022/04/18 10:46:37;;;;;;;;;;;;;;;22.87;58.56;96699.72;619716;229;65326;-74
2022/04/18 10:49:06;;;;;;;;;;;;;;;22.87;58.66;96696.25;619407;228;67271;-73
2022/04/18 10:51:38;;;;;;;;;;;;;;;22.89;58.57;96688.70;619666;229;66664;-73
2022/04/18 10:54:07;;;;;;;;;;;;;;;22.90;58.66;96687.63;619639;229;65648;-72
2022/04/18 10:56:48;;;;;;;;;;;;;;;22.91;58.70;96686.53;619625;229;67220;-72
2022/04/18 10:59:17;;;;;;;;;;;;;;;22.92;58.68;96688.14;619617;229;64738;-72
2022/04/18 11:01:44;;;;;;;;;;;;;;;22.92;58.49;96682.78;619559;229;63222;-72
2022/04/18 11:04:12;;;;;;;;;;;;;;;22.93;59.26;96674.44;619622;229;67422;-71
2022/04/18 11:06:41;;;;;;;;;;;;;;;22.95;58.42;96684.87;619706;229;67039;-72
2022/04/18 11:09:10;;;;;;;;;;;;;;;22.94;58.67;96676.02;619652;229;65102;-71
2022/04/18 11:11:38;;;;;;;;;;;;;;;22.96;58.30;96667.73;619314;229;67210;-72
2022/04/18 11:14:16;;;;;;;;;;;;;;;22.94;58.35;96667.98;619712;229;67072;-69
2022/04/18 11:16:45;;;;;;;;;;;;;;;22.97;58.89;96671.98;619653;229;63283;-73
2022/04/18 11:19:17;;;;;;;;;;;;;;;22.98;58.94;96666.35;619672;229;64819;-72
2022/04/18 11:21:59;;;;;;;;;;;;;;;23.00;59.06;96668.75;619663;229;66849;-70
2022/04/18 11:24:38;;;;;;;;;;;;;;;22.99;58.28;96673.30;619648;229;63085;-71
2022/04/18 11:27:06;;;;;;;;;;;;;;;23.00;58.24;96674.11;619295;229;64902;-71
2022/04/18 11:29:33;;;;;;;;;;;;;;;22.99;59.14;96667.14;619644;229;66843;-71
2022/04/18 11:32:01;;;;;;;;;;;;;;;22.99;59.12;96662.57;619651;229;65298;-71
2022/04/18 11:34:30;;;;;;;;;;;;;;;23.00;59.36;96669.55;619682;226;67174;-71
2022/04/18 11:36:59;;;;;;;;;;;;;;;23.02;58.95;96666.55;619620;229;65044;-70
2022/04/18 11:39:28;;;;;;;;;;;;;;;23.02;58.87;96663.88;619620;229;65329;-70
2022/04/18 11:42:07;;;;;;;;;;;;;;;23.04;59.28;96667.06;618789;228;64965;-69
2022/04/18 11:44:41;;;;;;;;;;;;;;;23.05;58.74;96657.92;617435;230;67122;-71
2022/04/18 11:47:10;;;;;;;;;;;;;;;23.06;58.64;96656.86;617488;230;62982;-71
2022/04/18 11:49:38;;;;;;;;;;;;;;;23.08;58.79;96659.23;617364;230;67264;-70
2022/04/18 11:52:06;;;;;;;;;;;;;;;23.08;58.26;96668.09;617346;230;66937;-75
2022/04/18 11:54:34;;;;;;;;;;;;;;;23.05;57.52;96657.92;617484;230;65361;-71
2022/04/18 11:57:03;;;;;;;;;;;;;;;23.09;57.58;96653.59;617495;230;66794;-71
2022/04/18 11:59:32;;;;;;;;;;;;;;;23.10;58.01;96652.48;617440;230;64988;-71
2022/04/18 12:07:34;;;;;;;;;;;;;;;23.13;57.65;96637.70;617362;230;64917;-73
2022/04/18 12:10:03;;;;;;;;;;;;;;;23.13;58.42;96632.34;617437;230;65262;-70
2022/04/18 12:12:32;;;;;;;;;;;;;;;23.14;58.07;96632.06;617142;228;67076;-70
2022/04/18 12:15:03;;;;;;;;;;;;;;;23.15;57.73;96619.45;617443;230;64923;-70
2022/04/18 12:17:32;;;;;;;;;;;;;;;23.16;57.96;96619.17;617466;230;63249;-71
2022/04/18 12:20:01;;;;;;;;;;;;;;;23.17;57.98;96620.75;617425;230;67153;-70
2022/04/18 12:22:29;;;;;;;;;;;;;;;23.17;57.81;96623.43;617074;228;64957;-70
2022/04/18 12:24:58;;;;;;;;;;;;;;;23.18;57.74;96619.65;617469;230;63271;-70
2022/04/18 12:27:28;;;;;;;;;;;;;;;23.19;57.65;96613.22;617296;230;64599;-71
2022/04/18 12:29:57;;;;;;;;;;;;;;;23.19;58.28;96613.22;617277;228;67920;-69
2022/04/18 12:32:28;;;;;;;;;;;;;;;23.21;57.92;96605.66;617406;230;65224;-71
2022/04/18 12:34:55;;;;;;;;;;;;;;;23.21;57.77;96604.86;619272;227;68065;-69
2022/04/18 12:37:26;;;;;;;;;;;;;;;23.21;57.49;96605.66;619297;227;66928;-72
2022/04/18 12:39:55;;;;;;;;;;;;;;;23.24;57.78;96605.09;621411;226;65423;-70
2022/04/18 12:42:23;;;;;;;;;;;;;;;23.27;57.63;96603.67;619970;227;67293;-70
2022/04/18 12:44:52;;;;;;;;;;;;;;;23.28;57.45;96599.13;624655;227;66821;-70
2022/04/18 12:47:20;;;;;;;;;;;;;;;23.29;57.60;96598.82;624465;225;65131;-70
2022/04/18 12:50:04;;;;;;;;;;;;;;;23.29;57.35;96595.35;624493;227;67743;-71
2022/04/18 12:52:32;;;;;;;;;;;;;;;23.31;57.65;96593.17;624392;226;67239;-70
2022/04/18 12:55:06;;;;;;;;;;;;;;;23.31;57.46;96598.54;624102;227;64073;-70
2022/04/18 12:57:34;;;;;;;;;;;;;;;23.32;58.34;96597.44;624412;227;67215;-70
2022/04/18 13:00:09;;;;;;;;;;;;;;;23.35;57.54;96594.16;624579;227;66977;-69
2022/04/18 13:02:38;;;;;;;;;;;;;;;23.36;58.05;96598.45;624478;227;65408;-70
2022/04/18 13:05:06;;;;;;;;;;;;;;;23.36;58.26;96590.41;624465;227;64898;-70
2022/04/18 13:07:45;;;;;;;;;;;;;;;23.37;58.20;96598.14;624478;227;67204;-69
2022/04/18 13:10:11;;;;;;;;;;;;;;;23.37;57.84;96598.14;624321;225;65166;-70
2022/04/18 13:12:38;;;;;;;;;;;;;;;23.40;57.92;96591.39;624556;227;66943;-70
2022/04/18 13:15:07;;;;;;;;;;;;;;;23.41;58.54;96584.95;624548;227;67063;-70
2022/04/18 13:17:35;;;;;;;;;;;;;;;23.41;58.08;96583.06;624402;227;63217;-70
2022/04/18 13:20:07;;;;;;;;;;;;;;;23.43;58.36;96585.43;624541;227;67379;-70
2022/04/18 13:22:35;;;;;;;;;;;;;;;23.45;57.87;96572.52;624509;227;67794;-70
2022/04/18 13:25:03;;;;;;;;;;;;;;;23.43;58.07;96572.02;624473;227;64942;-70